Time;durP1;ratioP1;P1;durP2;ratioP2;P2;SDS_P1;SDS_P2;PMS_P1;PMS_P2;Temp;Humidity;BMP_temperature;BMP_pressure;BME280_temperature;BME280_humidity;BME280_pressure;Samples;Min_cycle;Max_cycle;Signal;HPM_P1;HPM_P2
2022/04/05 00:01:23;;;;;;;3.87;1.20;;;9.30;99.90;;;;;;5129210;28;20234;-92
2022/04/05 00:03:57;;;;;;;6.77;1.50;;;9.90;99.90;;;;;;5124564;28;20217;-93
2022/04/05 00:06:31;;;;;;;4.87;1.37;;;10.00;99.90;;;;;;5125569;28;20209;-93
2022/04/05 00:09:03;;;;;;;8.87;1.90;;;9.90;99.90;;;;;;5122829;28;20270;-92
2022/04/05 00:11:34;;;;;;;8.63;1.50;;;9.90;99.90;;;;;;5123329;28;20290;-91
2022/04/05 00:14:09;;;;;;;4.53;1.27;;;9.80;99.90;;;;;;5121690;28;20206;-90
2022/04/05 00:16:41;;;;;;;7.23;1.33;;;9.30;99.90;;;;;;5125970;28;20663;-91
2022/04/05 00:19:21;;;;;;;3.53;1.63;;;9.10;99.90;;;;;;5105606;28;20224;-90
2022/04/05 00:21:57;;;;;;;4.10;3.37;;;8.90;99.90;;;;;;5131094;28;20254;-90
2022/04/05 00:24:29;;;;;;;4.73;1.33;;;8.30;99.90;;;;;;5117002;28;20220;-92
2022/04/05 00:27:01;;;;;;;6.10;1.40;;;8.20;99.90;;;;;;5139022;28;20247;-91
2022/04/05 00:29:32;;;;;;;8.43;1.60;;;8.30;99.90;;;;;;5143676;27;20185;-90
2022/04/05 00:32:05;;;;;;;6.50;1.50;;;8.40;99.90;;;;;;5144274;27;20221;-93
2022/04/05 00:34:37;;;;;;;4.97;1.50;;;8.90;99.90;;;;;;5114239;28;20214;-91
2022/04/05 00:37:33;;;;;;;3.97;1.80;;;9.10;99.90;;;;;;5115136;28;20216;-93
2022/04/05 00:40:06;;;;;;;3.77;1.97;;;9.50;99.90;;;;;;5130081;27;20217;-90
2022/04/05 00:42:41;;;;;;;5.27;1.93;;;9.50;99.90;;;;;;5153755;27;20253;-90
2022/04/05 00:45:15;;;;;;;10.17;1.80;;;9.20;99.90;;;;;;5153774;27;20230;-91
2022/04/05 00:47:52;;;;;;;8.63;1.80;;;9.20;99.90;;;;;;5154577;27;20210;-90
2022/04/05 00:50:36;;;;;;;11.03;1.87;;;8.60;99.90;;;;;;5150337;27;20737;-91
2022/04/05 00:53:28;;;;;;;32.70;10.73;;;8.20;99.90;;;;;;5156713;27;20201;-91
2022/04/05 01:05:25;;;;;;;13.77;3.07;;;7.90;99.90;;;;;;5148941;27;20209;-90
2022/04/05 01:08:13;;;;;;;7.47;1.80;;;7.80;99.90;;;;;;5131938;27;20204;-90
2022/04/05 01:11:00;;;;;;;5.23;1.40;;;8.00;99.90;;;;;;5157709;27;20208;-90
2022/04/05 01:13:36;;;;;;;5.33;1.37;;;8.10;99.90;;;;;;5157705;27;20221;-91
2022/04/05 01:16:12;;;;;;;3.80;1.50;;;8.20;99.90;;;;;;5157876;27;20201;-91
2022/04/05 01:18:44;;;;;;;4.07;1.00;;;8.10;99.90;;;;;;5140178;27;20221;-91
2022/04/05 01:21:24;;;;;;;3.63;1.27;;;8.10;99.90;;;;;;5151505;27;20236;-92
2022/04/05 01:27:27;;;;;;;11.10;2.37;;;7.80;99.90;;;;;;5153599;27;20200;-91
2022/04/05 01:30:03;;;;;;;9.80;2.50;;;7.30;99.90;;;;;;5136019;27;20217;-92
2022/04/05 01:35:26;;;;;;;11.33;2.90;;;7.40;99.90;;;;;;5143292;27;20266;-91
2022/04/05 01:38:10;;;;;;;10.67;2.67;;;7.40;99.90;;;;;;5152018;27;20209;-91
2022/04/05 01:40:43;;;;;;;13.53;3.53;;;7.40;99.90;;;;;;5139542;27;20205;-91
2022/04/05 01:43:16;;;;;;;11.27;3.77;;;7.40;99.90;;;;;;5140248;27;20209;-91
2022/04/05 01:45:50;;;;;;;10.97;2.60;;;7.30;99.90;;;;;;5140740;27;20614;-91
2022/04/05 01:48:39;;;;;;;14.07;7.00;;;7.30;99.90;;;;;;5143165;27;20212;-93
2022/04/05 01:51:14;;;;;;;7.83;1.93;;;7.10;99.90;;;;;;5150571;27;20210;-94
2022/04/05 01:53:52;;;;;;;7.50;2.00;;;7.00;99.90;;;;;;5141118;27;20232;-91
2022/04/05 01:56:31;;;;;;;7.27;2.30;;;7.00;99.90;;;;;;5146539;27;20209;-91
2022/04/05 01:59:12;;;;;;;9.87;2.03;;;7.00;99.90;;;;;;5129362;27;20201;-92
2022/04/05 02:04:25;;;;;;;4.90;1.30;;;7.00;99.90;;;;;;5080703;28;20219;-92
2022/04/05 02:06:56;;;;;;;4.03;2.20;;;6.80;99.90;;;;;;5085256;28;20203;-92
2022/04/05 02:12:16;;;;;;;27.20;5.03;;;6.60;99.90;;;;;;5096256;28;20211;-91
2022/04/05 02:14:52;;;;;;;5.20;1.40;;;6.40;99.90;;;;;;5096200;28;20226;-91
2022/04/05 02:20:28;;;;;;;3.23;1.27;;;6.10;99.90;;;;;;5092915;28;20620;-94
2022/04/05 02:29:01;;;;;;;6.17;1.70;;;5.90;99.90;;;;;;5079795;28;20537;-93
2022/04/05 02:31:36;;;;;;;5.33;2.23;;;5.90;99.90;;;;;;5079377;28;20223;-93
2022/04/05 02:34:20;;;;;;;9.47;2.13;;;5.90;99.90;;;;;;5079878;28;20207;-93
2022/04/05 02:39:38;;;;;;;6.67;1.60;;;5.80;99.90;;;;;;5089159;28;20233;-92
2022/04/05 02:42:34;;;;;;;5.17;1.30;;;5.80;99.90;;;;;;5096892;28;20211;-94
2022/04/05 02:48:29;;;;;;;4.43;1.50;;;5.60;99.90;;;;;;5093240;28;20238;-91
2022/04/05 03:01:47;;;;;;;10.40;2.13;;;5.50;99.90;;;;;;5056805;28;20234;-93
2022/04/05 03:04:18;;;;;;;7.53;2.03;;;5.50;99.90;;;;;;5063849;28;20203;-92
2022/04/05 03:06:54;;;;;;;7.67;1.83;;;5.40;99.90;;;;;;5075873;28;20192;-93
2022/04/05 03:12:26;;;;;;;6.27;1.53;;;5.20;99.90;;;;;;5061157;28;20672;-93
2022/04/05 03:15:02;;;;;;;3.97;1.50;;;5.10;99.90;;;;;;5070075;28;20227;-93
2022/04/05 03:17:43;;;;;;;6.17;1.40;;;5.10;99.90;;;;;;5059221;28;20622;-94
2022/04/05 03:20:20;;;;;;;4.47;1.50;;;5.00;99.90;;;;;;5056701;28;20227;-91
2022/04/05 03:22:55;;;;;;;7.33;3.70;;;5.00;99.90;;;;;;5057366;28;20240;-93
2022/04/05 03:25:30;;;;;;;7.60;1.67;;;4.90;99.90;;;;;;5057658;28;20669;-94
2022/04/05 03:28:20;;;;;;;7.50;1.37;;;4.80;99.90;;;;;;5058994;28;20236;-92
2022/04/05 03:36:44;;;;;;;4.33;1.20;;;4.70;99.90;;;;;;5060003;28;20240;-93
2022/04/05 03:44:56;;;;;;;6.80;1.67;;;4.80;99.90;;;;;;5046550;28;20739;-92
2022/04/05 03:47:42;;;;;;;11.57;5.63;;;4.90;99.90;;;;;;5053275;28;20200;-93
2022/04/05 04:10:27;;;;;;;9.90;2.13;;;5.00;99.90;;;;;;5079467;28;20207;-91
2022/04/05 04:12:58;;;;;;;7.50;1.90;;;5.00;99.90;;;;;;5076963;28;20286;-92
2022/04/05 04:15:33;;;;;;;9.77;2.60;;;5.00;99.90;;;;;;5076282;28;20234;-92
2022/04/05 04:18:05;;;;;;;10.43;2.23;;;5.00;99.90;;;;;;5076117;28;20231;-93
2022/04/05 04:20:38;;;;;;;9.23;2.20;;;5.00;99.90;;;;;;5074606;28;20267;-93
2022/04/05 04:23:14;;;;;;;7.27;2.13;;;5.10;99.90;;;;;;5060961;28;20208;-92
2022/04/05 04:28:49;;;;;;;9.70;2.43;;;5.10;99.90;;;;;;5060982;28;20239;-93
2022/04/05 04:31:22;;;;;;;9.83;2.00;;;5.10;99.90;;;;;;5071451;28;20208;-92
2022/04/05 04:33:55;;;;;;;10.20;2.27;;;5.10;99.90;;;;;;5066061;28;20237;-93
2022/04/05 04:36:27;;;;;;;11.97;2.47;;;5.10;99.90;;;;;;5061272;28;20212;-92
2022/04/05 04:39:08;;;;;;;16.07;3.00;;;5.10;99.90;;;;;;5059755;28;20299;-92
2022/04/05 04:41:43;;;;;;;8.93;2.90;;;5.10;99.90;;;;;;5059973;28;20287;-93
2022/04/05 04:44:15;;;;;;;8.80;2.30;;;5.10;99.90;;;;;;5060369;28;20679;-94
2022/04/05 04:46:46;;;;;;;14.83;3.27;;;5.10;99.90;;;;;;5059876;28;20620;-92
2022/04/05 04:49:18;;;;;;;11.23;3.03;;;5.10;99.90;;;;;;5059666;28;20262;-94
2022/04/05 04:51:49;;;;;;;11.50;2.77;;;5.10;99.90;;;;;;5059535;28;20235;-92
2022/04/05 04:54:24;;;;;;;11.20;3.63;;;5.10;99.90;;;;;;5062833;28;20200;-92
2022/04/05 04:56:58;;;;;;;29.70;9.73;;;5.10;99.90;;;;;;5072137;28;20246;-92
2022/04/05 04:59:38;;;;;;;11.83;2.90;;;5.00;99.90;;;;;;5074039;28;20231;-92
2022/04/05 05:02:15;;;;;;;8.83;5.33;;;5.00;99.90;;;;;;5064674;28;20644;-92
2022/04/05 05:04:47;;;;;;;12.57;2.60;;;5.00;99.90;;;;;;5059493;28;20262;-91
2022/04/05 05:07:19;;;;;;;13.60;3.00;;;5.00;99.90;;;;;;5059032;28;20629;-92
2022/04/05 05:09:54;;;;;;;9.07;3.50;;;5.00;99.90;;;;;;5062337;28;20228;-92
2022/04/05 05:12:27;;;;;;;10.77;2.67;;;5.10;99.90;;;;;;5058811;28;20247;-93
2022/04/05 05:15:06;;;;;;;183.20;21.87;;;5.10;99.90;;;;;;5059663;28;20216;-93
2022/04/05 05:17:48;;;;;;;16.10;2.90;;;5.10;99.90;;;;;;5065796;28;20206;-93
2022/04/05 05:23:06;;;;;;;12.10;2.83;;;5.10;99.90;;;;;;5066163;28;20208;-93
2022/04/05 05:25:49;;;;;;;12.63;2.83;;;5.00;99.90;;;;;;5058007;28;20235;-92
2022/04/05 05:28:21;;;;;;;10.37;2.60;;;5.00;99.90;;;;;;5060480;28;20208;-91
2022/04/05 05:30:54;;;;;;;9.47;2.50;;;5.00;99.90;;;;;;5059139;28;20215;-92
2022/04/05 05:33:26;;;;;;;9.83;2.37;;;5.00;99.90;;;;;;5059191;28;20232;-94
2022/04/05 05:35:58;;;;;;;15.43;2.93;;;5.10;99.90;;;;;;5058592;28;20212;-92
2022/04/05 05:38:32;;;;;;;10.53;2.00;;;5.00;99.90;;;;;;5057821;28;20265;-93
2022/04/05 05:41:06;;;;;;;14.10;4.30;;;5.00;99.90;;;;;;5058681;28;20550;-94
2022/04/05 05:43:38;;;;;;;8.87;2.43;;;5.00;99.90;;;;;;5058737;28;20204;-93
2022/04/05 05:46:10;;;;;;;10.77;2.63;;;5.00;99.90;;;;;;5058979;28;20220;-92
2022/04/05 05:48:43;;;;;;;14.43;2.73;;;5.10;99.90;;;;;;5058688;28;20207;-93
2022/04/05 05:51:15;;;;;;;11.93;3.43;;;4.90;99.90;;;;;;5068429;28;20204;-93
2022/04/05 05:53:49;;;;;;;16.63;6.53;;;5.00;99.90;;;;;;5060538;28;20232;-93
2022/04/05 05:56:23;;;;;;;12.40;2.80;;;5.10;99.90;;;;;;5064296;28;20208;-93
2022/04/05 05:59:00;;;;;;;13.90;3.57;;;5.00;99.90;;;;;;5060697;28;20223;-93
2022/04/05 06:01:32;;;;;;;13.23;3.17;;;5.10;99.90;;;;;;5052331;28;20236;-93
2022/04/05 06:04:08;;;;;;;13.90;2.87;;;5.10;99.90;;;;;;5039051;28;20717;-92
2022/04/05 06:06:39;;;;;;;16.50;3.40;;;5.00;99.90;;;;;;5038276;28;20245;-92
2022/04/05 06:09:11;;;;;;;15.70;3.23;;;5.00;99.90;;;;;;5037857;28;20243;-92
2022/04/05 06:11:47;;;;;;;11.30;2.43;;;5.00;99.90;;;;;;5038790;28;20646;-92
2022/04/05 06:14:18;;;;;;;9.63;2.40;;;5.00;99.90;;;;;;5038344;28;20306;-93
2022/04/05 06:16:51;;;;;;;14.47;2.93;;;5.00;99.90;;;;;;5040189;28;20204;-93
2022/04/05 06:19:24;;;;;;;14.50;3.43;;;5.00;99.90;;;;;;5038170;28;20255;-92
2022/04/05 06:21:58;;;;;;;12.90;3.63;;;4.90;99.90;;;;;;5039804;28;20208;-93
2022/04/05 06:24:30;;;;;;;21.00;4.63;;;4.90;99.90;;;;;;5038607;28;20278;-92
2022/04/05 06:27:15;;;;;;;16.67;2.83;;;4.80;99.90;;;;;;5041534;28;20231;-94
2022/04/05 06:29:48;;;;;;;14.33;3.17;;;4.80;99.90;;;;;;5041001;28;20201;-94
2022/04/05 06:32:21;;;;;;;8.37;2.30;;;4.70;99.90;;;;;;5046507;28;20232;-93
2022/04/05 06:34:57;;;;;;;13.33;3.03;;;4.60;99.90;;;;;;5054184;28;20216;-92
2022/04/05 06:37:35;;;;;;;9.03;2.53;;;4.60;99.90;;;;;;5055184;28;20677;-93
2022/04/05 06:40:09;;;;;;;12.50;2.53;;;4.60;99.90;;;;;;5060789;28;20212;-93
2022/04/05 06:42:49;;;;;;;11.50;2.60;;;4.60;99.90;;;;;;5058707;28;20210;-94
2022/04/05 06:45:22;;;;;;;15.80;2.87;;;4.60;99.90;;;;;;5058872;28;20299;-94
2022/04/05 06:47:54;;;;;;;12.97;3.10;;;4.60;99.90;;;;;;5059299;28;20273;-92
2022/04/05 06:50:26;;;;;;;11.50;2.80;;;4.50;99.90;;;;;;5059065;28;20228;-93
2022/04/05 06:53:02;;;;;;;13.70;3.67;;;4.40;99.90;;;;;;5059591;28;20260;-92
2022/04/05 06:55:33;;;;;;;15.07;4.87;;;4.50;99.90;;;;;;5069439;28;20213;-93
2022/04/05 06:58:08;;;;;;;9.17;2.30;;;4.50;99.90;;;;;;5075551;28;20204;-92
2022/04/05 07:00:40;;;;;;;9.50;2.50;;;4.60;99.90;;;;;;5076200;28;20211;-93
2022/04/05 07:03:13;;;;;;;16.83;2.93;;;4.60;99.90;;;;;;5079945;28;20207;-91
2022/04/05 07:05:45;;;;;;;8.60;2.13;;;4.60;99.90;;;;;;5080533;28;20196;-92
2022/04/05 07:08:18;;;;;;;9.93;2.90;;;4.60;99.90;;;;;;5059541;28;20203;-92
2022/04/05 07:10:52;;;;;;;14.70;4.67;;;4.60;99.90;;;;;;5060565;28;20208;-93
2022/04/05 07:13:27;;;;;;;15.80;4.23;;;4.60;99.90;;;;;;5059994;28;20285;-91
2022/04/05 07:15:58;;;;;;;9.13;2.47;;;4.50;99.90;;;;;;5059634;28;20197;-93
2022/04/05 07:18:30;;;;;;;9.57;2.70;;;4.50;99.90;;;;;;5055620;28;20220;-91
2022/04/05 07:21:02;;;;;;;18.77;5.73;;;4.40;99.90;;;;;;5057592;28;20215;-93
2022/04/05 07:23:41;;;;;;;13.77;3.57;;;4.40;99.90;;;;;;5056982;28;20211;-91
2022/04/05 07:26:14;;;;;;;13.13;3.00;;;4.40;99.90;;;;;;5057093;28;20197;-92
2022/04/05 07:28:48;;;;;;;14.17;2.50;;;4.30;99.90;;;;;;5058767;28;20185;-93
2022/04/05 07:31:22;;;;;;;14.30;3.40;;;4.30;99.90;;;;;;5059469;28;20231;-93
2022/04/05 07:33:55;;;;;;;10.33;2.07;;;4.30;99.90;;;;;;5059654;28;20223;-93
2022/04/05 07:36:32;;;;;;;10.97;2.57;;;4.20;99.90;;;;;;5055659;28;20274;-91
2022/04/05 07:39:05;;;;;;;9.93;2.90;;;4.20;99.90;;;;;;5052608;28;20200;-92
2022/04/05 07:41:38;;;;;;;11.47;1.80;;;4.20;99.90;;;;;;5067417;28;20204;-92
2022/04/05 07:44:12;;;;;;;12.83;2.83;;;4.20;99.90;;;;;;5066613;28;20228;-91
2022/04/05 07:46:48;;;;;;;7.83;1.90;;;4.20;99.90;;;;;;5064508;28;20208;-94
2022/04/05 07:49:23;;;;;;;13.57;4.10;;;4.20;99.90;;;;;;5069317;28;20209;-92
2022/04/05 07:51:56;;;;;;;13.00;2.30;;;4.20;99.90;;;;;;5067622;28;20211;-94
2022/04/05 07:54:28;;;;;;;9.53;2.73;;;4.20;99.90;;;;;;5063434;28;20224;-92
2022/04/05 07:57:00;;;;;;;16.93;2.63;;;4.10;99.90;;;;;;5059808;28;20204;-93
2022/04/05 07:59:40;;;;;;;13.43;2.93;;;4.20;99.90;;;;;;5061003;28;20270;-93
2022/04/05 08:02:13;;;;;;;11.03;2.53;;;4.20;99.90;;;;;;5048880;28;20245;-93
2022/04/05 08:04:58;;;;;;;9.77;3.30;;;4.20;99.90;;;;;;5043161;28;20495;-93
2022/04/05 08:07:32;;;;;;;9.57;2.33;;;4.30;99.90;;;;;;5041757;28;20304;-91
2022/04/05 08:10:04;;;;;;;12.77;3.10;;;4.30;99.90;;;;;;5043415;28;20275;-91
2022/04/05 08:12:43;;;;;;;17.27;6.73;;;4.20;99.90;;;;;;5042327;28;20247;-91
2022/04/05 08:15:24;;;;;;;13.83;3.23;;;4.30;99.90;;;;;;5042388;28;20294;-93
2022/04/05 08:18:05;;;;;;;16.03;3.60;;;4.40;99.90;;;;;;5041935;28;20646;-92
2022/04/05 08:20:39;;;;;;;11.57;2.30;;;4.40;99.90;;;;;;5041940;28;20286;-92
2022/04/05 08:23:11;;;;;;;11.30;2.50;;;4.40;99.90;;;;;;5041805;28;20204;-91
2022/04/05 08:25:43;;;;;;;13.53;2.67;;;4.40;99.90;;;;;;5041740;28;20217;-92
2022/04/05 08:28:15;;;;;;;10.53;3.80;;;4.40;99.90;;;;;;5039400;28;20247;-91
2022/04/05 08:30:52;;;;;;;11.20;2.50;;;4.50;99.90;;;;;;5041150;28;20220;-92
2022/04/05 08:33:26;;;;;;;49.20;9.97;;;4.50;99.90;;;;;;5041229;28;20240;-92
2022/04/05 08:35:59;;;;;;;18.43;3.33;;;4.50;99.90;;;;;;5041321;28;20292;-91
2022/04/05 08:38:36;;;;;;;11.13;3.17;;;4.60;99.90;;;;;;5040022;28;20262;-93
2022/04/05 08:41:09;;;;;;;14.53;2.60;;;4.50;99.90;;;;;;5040980;28;20232;-92
2022/04/05 08:43:45;;;;;;;13.13;2.73;;;4.40;99.90;;;;;;5045663;28;20201;-92
2022/04/05 08:46:24;;;;;;;12.53;2.33;;;4.30;99.90;;;;;;5042293;28;20235;-93
2022/04/05 08:49:02;;;;;;;12.07;3.47;;;4.30;99.90;;;;;;5039961;28;20243;-93
2022/04/05 08:51:42;;;;;;;12.60;3.43;;;4.20;99.90;;;;;;5039942;28;20201;-91
2022/04/05 08:54:16;;;;;;;11.27;2.37;;;4.20;99.90;;;;;;5041128;28;20807;-89
2022/04/05 08:56:52;;;;;;;13.63;3.67;;;4.10;99.90;;;;;;5041493;28;20213;-93
2022/04/05 08:59:27;;;;;;;15.33;3.10;;;4.10;99.90;;;;;;5038855;28;20251;-91
2022/04/05 09:02:02;;;;;;;8.57;2.33;;;4.00;99.90;;;;;;5041377;28;20209;-93
2022/04/05 09:04:37;;;;;;;16.73;3.23;;;4.00;99.90;;;;;;5039992;28;20229;-92
2022/04/05 09:07:30;;;;;;;10.60;2.60;;;3.90;99.90;;;;;;5039526;28;20236;-94
2022/04/05 09:10:23;;;;;;;20.13;4.40;;;3.90;99.90;;;;;;5039383;28;20205;-92
2022/04/05 09:15:45;;;;;;;10.63;2.50;;;3.90;99.90;;;;;;5052652;28;20716;-90
2022/04/05 09:18:37;;;;;;;10.37;2.70;;;3.90;99.90;;;;;;5061019;28;20210;-92
2022/04/05 09:21:11;;;;;;;16.53;3.47;;;3.80;99.90;;;;;;5060037;28;20224;-93
2022/04/05 09:23:45;;;;;;;20.77;4.30;;;3.90;99.90;;;;;;5059289;28;20226;-93
2022/04/05 09:26:19;;;;;;;12.90;2.27;;;3.90;99.90;;;;;;5059372;28;20653;-91
2022/04/05 09:28:52;;;;;;;11.53;2.60;;;3.90;99.90;;;;;;5062897;28;20258;-94
2022/04/05 09:31:25;;;;;;;10.17;3.20;;;3.80;99.90;;;;;;5070695;28;20216;-92
2022/04/05 09:34:12;;;;;;;11.77;2.20;;;3.80;99.90;;;;;;5071709;28;20204;-93
2022/04/05 09:36:45;;;;;;;11.00;3.37;;;3.90;99.90;;;;;;5066505;28;20236;-94
2022/04/05 09:39:22;;;;;;;8.50;3.10;;;3.80;99.90;;;;;;5066399;28;20746;-92
2022/04/05 09:42:03;;;;;;;8.83;1.80;;;3.80;99.90;;;;;;5075355;28;20203;-93
2022/04/05 09:44:37;;;;;;;8.93;2.50;;;3.90;99.90;;;;;;5077036;28;20192;-93
2022/04/05 09:47:14;;;;;;;14.97;3.50;;;3.90;99.90;;;;;;5074988;28;20200;-94
2022/04/05 09:49:49;;;;;;;10.03;4.40;;;4.00;99.90;;;;;;5066233;28;20261;-93
2022/04/05 09:52:30;;;;;;;9.77;2.00;;;4.00;99.90;;;;;;5056543;28;20208;-93
2022/04/05 09:55:13;;;;;;;12.20;2.30;;;4.00;99.90;;;;;;5043721;28;20648;-94
2022/04/05 09:57:46;;;;;;;8.27;2.53;;;4.00;99.90;;;;;;5039524;28;20239;-92
2022/04/05 10:00:22;;;;;;;14.67;2.90;;;3.90;99.90;;;;;;5038983;28;20208;-93
2022/04/05 10:03:04;;;;;;;9.33;2.13;;;3.90;99.90;;;;;;5058256;28;20215;-94
2022/04/05 10:05:42;;;;;;;11.27;2.50;;;4.00;99.90;;;;;;5057971;28;20254;-92
2022/04/05 10:08:14;;;;;;;8.13;2.17;;;4.00;99.90;;;;;;5057489;28;20287;-93
2022/04/05 10:10:46;;;;;;;8.87;2.57;;;3.90;99.90;;;;;;5040378;28;20213;-92
2022/04/05 10:13:19;;;;;;;14.03;3.37;;;3.90;99.90;;;;;;5039782;28;20265;-94
2022/04/05 10:15:53;;;;;;;10.63;3.30;;;3.90;99.90;;;;;;5040675;28;20236;-91
2022/04/05 10:18:33;;;;;;;11.83;3.80;;;4.00;99.90;;;;;;5038184;28;20772;-92
2022/04/05 10:21:08;;;;;;;15.17;3.97;;;4.00;99.90;;;;;;5049157;28;20247;-94
2022/04/05 10:23:46;;;;;;;12.63;3.17;;;4.00;99.90;;;;;;5043337;28;20207;-92
2022/04/05 10:26:20;;;;;;;8.80;2.30;;;3.90;99.90;;;;;;5044819;28;20221;-93
2022/04/05 10:28:54;;;;;;;9.63;2.43;;;3.90;99.90;;;;;;5045232;28;20205;-92
2022/04/05 10:31:31;;;;;;;14.60;3.20;;;3.90;99.90;;;;;;5039940;28;20209;-92
2022/04/05 10:34:20;;;;;;;14.10;4.90;;;3.90;99.90;;;;;;5038177;28;20220;-92
2022/04/05 10:37:32;;;;;;;15.83;4.93;;;3.90;99.90;;;;;;5037829;28;20232;-93
2022/04/05 10:40:17;;;;;;;12.83;3.00;;;3.80;99.90;;;;;;4997427;28;20218;-92
2022/04/05 10:42:51;;;;;;;14.50;2.53;;;3.80;99.90;;;;;;5066354;28;20208;-92
2022/04/05 10:45:25;;;;;;;18.37;3.23;;;3.80;99.90;;;;;;5065951;28;20211;-91
2022/04/05 10:48:02;;;;;;;12.60;2.83;;;3.90;99.90;;;;;;5067380;28;20272;-93
2022/04/05 10:51:30;;;;;;;15.33;2.77;;;3.90;99.90;;;;;;5068406;28;20212;-92
2022/04/05 10:54:25;;;;;;;13.37;2.73;;;3.90;99.90;;;;;;5063638;28;20653;-94
2022/04/05 10:57:30;;;;;;;10.83;3.07;;;3.90;99.90;;;;;;5064638;28;20215;-93
2022/04/05 11:00:03;;;;;;;13.63;2.27;;;4.00;99.90;;;;;;5076767;28;20203;-94
2022/04/05 11:02:41;;;;;;;17.53;2.93;;;4.00;99.90;;;;;;5059751;28;20224;-92
2022/04/05 11:05:38;;;;;;;11.63;2.90;;;4.00;99.90;;;;;;5055108;28;20268;-93
2022/04/05 11:08:20;;;;;;;15.40;2.87;;;4.00;99.90;;;;;;5051781;28;20188;-92
2022/04/05 11:11:01;;;;;;;10.73;2.43;;;4.00;99.90;;;;;;5053161;28;20197;-94
2022/04/05 11:13:46;;;;;;;14.13;3.20;;;4.00;99.90;;;;;;5051869;28;20208;-91
2022/04/05 11:16:20;;;;;;;12.70;2.50;;;4.00;99.90;;;;;;5049529;28;20233;-94
2022/04/05 11:18:59;;;;;;;11.90;2.60;;;3.90;99.90;;;;;;5045132;28;20217;-93
2022/04/05 11:21:31;;;;;;;12.87;2.50;;;3.90;99.90;;;;;;5040797;28;20240;-91
2022/04/05 11:24:03;;;;;;;10.00;2.43;;;3.90;99.90;;;;;;5038051;28;20209;-92
2022/04/05 11:26:37;;;;;;;10.20;3.03;;;3.90;99.90;;;;;;5039199;28;20205;-94
2022/04/05 11:29:22;;;;;;;10.33;2.90;;;3.90;99.90;;;;;;5037588;28;20731;-91
2022/04/05 11:32:10;;;;;;;8.87;2.37;;;3.90;99.90;;;;;;5050478;28;20216;-93
2022/04/05 11:34:46;;;;;;;7.83;2.07;;;3.90;99.90;;;;;;5058631;28;20220;-93
2022/04/05 11:37:33;;;;;;;12.03;4.90;;;3.90;99.90;;;;;;5057356;28;20285;-93
2022/04/05 11:40:06;;;;;;;11.23;3.00;;;4.00;99.90;;;;;;5058693;28;20224;-94
2022/04/05 11:42:41;;;;;;;12.03;3.47;;;4.00;99.90;;;;;;5058620;28;20209;-92
2022/04/05 11:45:14;;;;;;;11.43;2.73;;;4.00;99.90;;;;;;5072350;28;20198;-93
2022/04/05 11:47:54;;;;;;;14.87;2.83;;;4.10;99.90;;;;;;5071253;28;20275;-92
2022/04/05 11:50:25;;;;;;;14.67;2.87;;;4.10;99.90;;;;;;5071410;28;20204;-92
2022/04/05 11:52:58;;;;;;;14.23;2.73;;;4.10;99.90;;;;;;5066848;28;20730;-93
2022/04/05 11:58:30;;;;;;;16.00;3.13;;;4.20;99.90;;;;;;5052597;28;20673;-92
2022/04/05 12:01:03;;;;;;;16.70;3.30;;;4.20;99.90;;;;;;5057146;28;20672;-91
2022/04/05 12:03:47;;;;;;;11.33;2.87;;;4.20;99.90;;;;;;5068257;28;20204;-93
2022/04/05 12:06:27;;;;;;;14.00;2.73;;;4.20;99.90;;;;;;5068428;28;20204;-91
2022/04/05 12:09:03;;;;;;;12.43;3.23;;;4.20;99.90;;;;;;5073506;28;20208;-92
2022/04/05 12:11:36;;;;;;;19.27;3.17;;;4.20;99.90;;;;;;5075664;28;20216;-91
2022/04/05 12:14:12;;;;;;;15.67;3.20;;;4.20;99.90;;;;;;5072013;28;20575;-93
2022/04/05 12:16:49;;;;;;;12.43;3.10;;;4.20;99.90;;;;;;5062809;28;20250;-91
2022/04/05 12:19:21;;;;;;;12.53;3.00;;;4.30;99.90;;;;;;5059456;28;20524;-93
2022/04/05 12:22:00;;;;;;;14.13;3.27;;;4.30;99.90;;;;;;5041160;28;20610;-94
2022/04/05 12:24:34;;;;;;;13.23;2.23;;;4.20;99.90;;;;;;5040123;28;20270;-94
2022/04/05 12:27:07;;;;;;;9.33;2.70;;;4.20;99.90;;;;;;5040214;28;20265;-93
2022/04/05 12:29:48;;;;;;;16.03;3.10;;;4.30;99.90;;;;;;5072031;22;20275;-93
2022/04/05 12:32:24;;;;;;;12.23;2.97;;;4.30;99.90;;;;;;5040306;28;20217;-93
2022/04/05 12:34:57;;;;;;;13.47;2.70;;;4.30;99.90;;;;;;5040017;28;20205;-91
2022/04/05 12:37:30;;;;;;;10.37;2.60;;;4.40;99.90;;;;;;5039179;28;20676;-91
2022/04/05 12:40:03;;;;;;;10.40;2.60;;;4.40;99.90;;;;;;5041060;28;20221;-92
2022/04/05 12:42:42;;;;;;;15.30;3.23;;;4.50;99.90;;;;;;5051265;28;20189;-93
2022/04/05 12:45:29;;;;;;;13.73;2.83;;;4.60;99.90;;;;;;5057193;28;20200;-92
2022/04/05 12:48:13;;;;;;;13.57;3.43;;;4.60;99.90;;;;;;5034642;28;20567;-92
2022/04/05 12:50:46;;;;;;;11.07;2.77;;;4.60;99.90;;;;;;5049231;28;20288;-94
2022/04/05 12:53:30;;;;;;;12.77;2.73;;;4.60;99.90;;;;;;5048057;28;20213;-91
2022/04/05 12:58:52;;;;;;;14.80;2.87;;;4.60;99.90;;;;;;5039982;28;20220;-93
2022/04/05 13:01:29;;;;;;;12.53;2.87;;;4.60;99.90;;;;;;5039788;28;20353;-92
2022/04/05 13:04:03;;;;;;;11.03;2.37;;;4.60;99.90;;;;;;5039737;28;20304;-93
2022/04/05 13:06:36;;;;;;;13.97;2.97;;;4.60;99.90;;;;;;5041975;28;20213;-93
2022/04/05 13:09:14;;;;;;;13.73;2.60;;;4.50;99.90;;;;;;5038855;28;20212;-92
2022/04/05 13:11:46;;;;;;;12.27;3.40;;;4.50;99.90;;;;;;5040971;28;20342;-93
2022/04/05 13:14:19;;;;;;;14.80;2.27;;;4.50;99.90;;;;;;5039993;28;20201;-92
2022/04/05 13:17:02;;;;;;;12.10;6.70;;;4.50;99.90;;;;;;5040063;28;20221;-93
2022/04/05 13:19:34;;;;;;;20.23;3.10;;;4.60;99.90;;;;;;5038948;28;20231;-93
2022/04/05 13:22:15;;;;;;;15.80;3.53;;;4.50;99.90;;;;;;5039051;28;20231;-94
2022/04/05 13:24:49;;;;;;;9.93;3.23;;;4.60;99.90;;;;;;5039774;28;20204;-90
2022/04/05 13:27:25;;;;;;;15.07;2.80;;;4.60;99.90;;;;;;5039836;28;20235;-93
2022/04/05 13:29:56;;;;;;;13.60;3.27;;;4.60;99.90;;;;;;5038907;28;20665;-93
2022/04/05 13:32:34;;;;;;;14.63;3.13;;;4.60;99.90;;;;;;5039830;28;20251;-93
2022/04/05 13:35:06;;;;;;;10.50;2.53;;;4.60;99.90;;;;;;5040120;28;20205;-92
2022/04/05 13:37:37;;;;;;;11.47;3.00;;;4.60;99.90;;;;;;5035966;28;20229;-90
2022/04/05 13:40:13;;;;;;;16.27;3.00;;;4.70;99.90;;;;;;5039664;28;20259;-91
2022/04/05 13:42:48;;;;;;;10.77;2.70;;;4.70;99.90;;;;;;5039393;28;20274;-91
2022/04/05 13:45:20;;;;;;;13.13;3.33;;;4.70;99.90;;;;;;5039484;28;20295;-91
2022/04/05 13:47:53;;;;;;;12.83;2.80;;;4.70;99.90;;;;;;5040911;28;20300;-92
2022/04/05 13:50:25;;;;;;;13.93;3.30;;;4.80;99.90;;;;;;5038569;28;20204;-92
2022/04/05 13:52:56;;;;;;;17.17;3.57;;;4.80;99.90;;;;;;5039016;28;20291;-92
2022/04/05 13:55:29;;;;;;;12.43;2.60;;;4.70;99.90;;;;;;5044860;28;20200;-90
2022/04/05 13:58:00;;;;;;;13.50;2.80;;;4.80;99.90;;;;;;5039020;28;20257;-92
2022/04/05 14:00:35;;;;;;;13.27;2.90;;;4.80;99.90;;;;;;5040080;28;20209;-92
2022/04/05 14:03:09;;;;;;;19.30;4.57;;;4.80;99.90;;;;;;5053753;28;20223;-92
2022/04/05 14:05:40;;;;;;;12.40;2.97;;;4.80;99.90;;;;;;5048076;28;20212;-92
2022/04/05 14:08:12;;;;;;;14.27;2.80;;;4.80;99.90;;;;;;5048527;28;20275;-92
2022/04/05 14:10:44;;;;;;;13.37;2.87;;;4.80;99.90;;;;;;5064751;28;20205;-91
2022/04/05 14:13:36;;;;;;;7.50;3.17;;;4.80;99.90;;;;;;5044087;28;20219;-92
2022/04/05 14:19:25;;;;;;;12.50;2.80;;;4.70;99.90;;;;;;5094854;22;20240;-92
2022/04/05 14:21:58;;;;;;;18.43;3.63;;;4.70;99.90;;;;;;5036608;28;20209;-93
2022/04/05 14:24:31;;;;;;;20.33;3.60;;;4.70;99.90;;;;;;5037142;28;20220;-91
2022/04/05 14:27:04;;;;;;;18.70;3.60;;;4.70;99.90;;;;;;5041886;28;20259;-91
2022/04/05 14:29:35;;;;;;;18.10;3.60;;;4.70;99.90;;;;;;5037865;28;20316;-91
2022/04/05 14:32:10;;;;;;;12.67;3.20;;;4.80;99.90;;;;;;5024552;28;20213;-91
2022/04/05 14:37:55;;;;;;;11.67;2.93;;;4.80;99.90;;;;;;5029242;28;20304;-92
2022/04/05 14:40:35;;;;;;;16.53;3.00;;;4.90;99.90;;;;;;5043180;28;20216;-93
2022/04/05 14:43:06;;;;;;;15.07;3.40;;;4.90;99.90;;;;;;5048696;28;20215;-92
2022/04/05 14:45:42;;;;;;;18.37;3.70;;;4.90;99.90;;;;;;5051511;28;20200;-93
2022/04/05 14:48:15;;;;;;;15.67;2.70;;;5.00;99.90;;;;;;5046736;28;20281;-93
2022/04/05 14:51:08;;;;;;;20.37;4.10;;;5.00;99.90;;;;;;5050901;28;20201;-91
2022/04/05 14:53:46;;;;;;;12.50;5.73;;;5.00;99.90;;;;;;5049744;28;20205;-92
2022/04/05 15:04:49;;;;;;;13.40;3.20;;;5.10;99.90;;;;;;5069763;28;20199;-94
2022/04/05 15:07:29;;;;;;;18.67;3.53;;;5.00;99.90;;;;;;5069790;28;20216;-91
2022/04/05 15:10:06;;;;;;;13.17;3.33;;;5.00;99.90;;;;;;5071088;28;20201;-92
2022/04/05 15:12:55;;;;;;;16.87;3.47;;;5.00;99.90;;;;;;5067714;28;20268;-92
2022/04/05 15:15:31;;;;;;;19.87;3.83;;;5.00;99.90;;;;;;5069543;28;20211;-93
2022/04/05 15:18:14;;;;;;;16.00;4.80;;;5.00;99.90;;;;;;5069390;28;20233;-91
2022/04/05 15:36:54;;;;;;;19.23;3.70;;;5.00;99.90;;;;;;5072804;28;20219;-89
2022/04/05 15:42:04;;;;;;;10.77;2.57;;;5.20;99.90;;;;;;5503585;22;20243;-92
2022/04/05 15:44:42;;;;;;;17.27;3.50;;;5.30;99.90;;;;;;5068307;28;20218;-94
2022/04/05 15:47:27;;;;;;;17.00;3.77;;;5.40;99.90;;;;;;5066582;28;20228;-91